Time;durP1;ratioP1;P1;durP2;ratioP2;P2;SDS_P1;SDS_P2;PMS_P1;PMS_P2;Temp;Humidity;BMP_temperature;BMP_pressure;BME280_temperature;BME280_humidity;BME280_pressure;Samples;Min_cycle;Max_cycle;Signal;HPM_P1;HPM_P2
2024/01/15 00:00:57;;;;;;;1.10;1.10;;;;;;;-1.14;nan;99024.44;5091249;28;20738;-67
2024/01/15 00:03:25;;;;;;;0.93;0.93;;;;;;;-1.17;nan;99019.38;5091045;28;20199;-66
2024/01/15 00:05:51;;;;;;;0.90;0.90;;;;;;;-1.19;nan;99021.03;5091154;28;20195;-67
2024/01/15 00:08:18;;;;;;;1.00;1.00;;;;;;;-1.20;nan;99019.34;5093009;28;20634;-67
2024/01/15 00:10:45;;;;;;;1.33;1.33;;;;;;;-1.26;nan;99024.28;5101687;28;20210;-67
2024/01/15 00:13:11;;;;;;;1.07;1.07;;;;;;;-1.28;nan;99025.97;5090626;28;20192;-67
2024/01/15 00:15:38;;;;;;;1.67;1.57;;;;;;;-1.27;nan;99032.69;5096421;28;20226;-67
2024/01/15 00:18:05;;;;;;;3.70;2.40;;;;;;;-1.29;nan;99024.25;5111118;28;20235;-67
2024/01/15 00:20:33;;;;;;;1.27;1.27;;;;;;;-1.29;nan;99021.75;5111299;28;20608;-67
2024/01/15 00:23:00;;;;;;;1.53;1.53;;;;;;;-1.31;nan;99015.88;5102535;28;20259;-67
2024/01/15 00:25:27;;;;;;;0.97;0.97;;;;;;;-1.34;nan;99018.34;5095564;28;20241;-67
2024/01/15 00:27:53;;;;;;;1.03;1.03;;;;;;;-1.35;nan;99019.16;5090295;28;20253;-67
2024/01/15 00:30:20;;;;;;;1.20;1.20;;;;;;;-1.38;nan;99019.13;5101252;28;20262;-67
2024/01/15 00:32:47;;;;;;;1.03;1.03;;;;;;;-1.41;nan;99016.59;5098144;28;20195;-67
2024/01/15 00:35:13;;;;;;;1.43;1.43;;;;;;;-1.44;nan;99014.06;5107113;28;20222;-67
2024/01/15 00:37:42;;;;;;;1.33;1.33;;;;;;;-1.43;nan;99015.75;5092908;28;20199;-66
2024/01/15 00:40:10;;;;;;;1.87;1.77;;;;;;;-1.46;nan;99004.81;5099161;28;20225;-67
2024/01/15 00:42:36;;;;;;;1.23;1.23;;;;;;;-1.46;nan;99010.69;5106646;28;20195;-67
2024/01/15 00:45:05;;;;;;;1.93;1.83;;;;;;;-1.48;nan;99006.44;5102065;28;20251;-67
2024/01/15 00:47:32;;;;;;;1.47;1.47;;;;;;;-1.52;nan;99008.09;5095056;28;20632;-67
2024/01/15 00:49:58;;;;;;;0.80;0.80;;;;;;;-1.56;nan;99013.06;5099315;28;20198;-67
2024/01/15 00:52:25;;;;;;;1.60;1.60;;;;;;;-1.61;nan;99005.47;5109189;28;20256;-67
2024/01/15 00:54:53;;;;;;;1.00;1.00;;;;;;;-1.62;nan;99001.28;5090224;28;20288;-67
2024/01/15 00:57:20;;;;;;;1.23;1.23;;;;;;;-1.62;nan;98998.78;5091605;28;20671;-67
2024/01/15 00:59:47;;;;;;;1.20;1.20;;;;;;;-1.66;nan;98994.53;5110779;28;20256;-67
2024/01/15 01:02:13;;;;;;;1.00;1.00;;;;;;;-1.66;nan;99002.06;5094784;28;20204;-67
2024/01/15 01:04:40;;;;;;;1.23;1.23;;;;;;;-1.71;nan;98986.91;5090177;28;20199;-66
2024/01/15 01:07:07;;;;;;;1.23;1.23;;;;;;;-1.69;nan;98986.94;5090222;28;20237;-66
2024/01/15 01:09:33;;;;;;;1.07;1.07;;;;;;;-1.72;nan;98994.47;5096088;28;20195;-67
2024/01/15 01:12:01;;;;;;;0.80;0.80;;;;;;;-1.74;nan;98993.56;5098161;28;20199;-66
2024/01/15 01:14:28;;;;;;;1.10;1.10;;;;;;;-1.73;nan;98991.09;5094376;28;20203;-67
2024/01/15 01:16:55;;;;;;;2.07;2.00;;;;;;;-1.72;nan;98994.47;5091873;28;20231;-67
2024/01/15 01:19:21;;;;;;;0.80;0.80;;;;;;;-1.76;nan;98990.22;5097517;28;20195;-67
2024/01/15 01:21:48;;;;;;;1.93;1.93;;;;;;;-1.80;nan;98994.34;5105541;28;20575;-67
2024/01/15 01:24:15;;;;;;;1.43;1.43;;;;;;;-1.85;nan;98995.97;5110402;28;20198;-67
2024/01/15 01:26:42;;;;;;;1.20;1.20;;;;;;;-1.86;nan;98988.41;5102137;28;20200;-67
2024/01/15 01:29:10;;;;;;;1.10;1.10;;;;;;;-1.85;nan;98980.91;5091228;28;20728;-66
2024/01/15 01:31:37;;;;;;;0.90;0.90;;;;;;;-1.87;nan;98984.19;5093919;28;20261;-67
2024/01/15 01:34:03;;;;;;;1.60;1.60;;;;;;;-1.86;nan;98988.41;5093989;28;20234;-67
2024/01/15 01:36:32;;;;;;;1.47;1.47;;;;;;;-1.92;nan;98984.16;5093570;28;20211;-66
2024/01/15 01:38:59;;;;;;;1.00;1.00;;;;;;;-1.95;nan;98980.75;5094468;28;20281;-67
2024/01/15 01:41:26;;;;;;;0.93;0.93;;;;;;;-1.98;nan;98978.22;5095244;28;20196;-66
2024/01/15 01:43:52;;;;;;;1.30;1.30;;;;;;;-1.96;nan;98981.56;5110025;28;20280;-66
2024/01/15 01:46:20;;;;;;;1.63;1.63;;;;;;;-2.01;nan;98983.19;5092433;28;20195;-66
2024/01/15 01:48:47;;;;;;;1.60;1.60;;;;;;;-2.04;nan;98968.94;5094889;28;20195;-66
2024/01/15 01:51:15;;;;;;;0.83;0.83;;;;;;;-2.02;nan;98979.00;5112808;28;20203;-67
2024/01/15 01:53:42;;;;;;;1.33;1.33;;;;;;;-2.05;nan;98971.44;5093293;28;20264;-66
2024/01/15 01:56:09;;;;;;;0.90;0.90;;;;;;;-2.10;nan;98975.56;5093220;28;21614;-67
2024/01/15 01:58:36;;;;;;;1.77;1.63;;;;;;;-2.05;nan;98971.44;5093444;28;20556;-67
2024/01/15 02:01:04;;;;;;;1.27;1.27;;;;;;;-2.05;nan;98971.44;5093376;28;20195;-67
2024/01/15 02:03:33;;;;;;;1.10;1.10;;;;;;;-2.12;nan;98963.81;5093120;28;20668;-66
2024/01/15 02:06:01;;;;;;;1.43;1.43;;;;;;;-2.12;nan;98951.25;5093312;28;20188;-67
2024/01/15 02:08:28;;;;;;;2.13;1.20;;;;;;;-2.12;nan;98946.25;5093094;28;20191;-66
2024/01/15 02:10:54;;;;;;;1.10;1.10;;;;;;;-2.08;nan;98941.25;5093257;28;20667;-67
2024/01/15 02:13:21;;;;;;;1.20;1.10;;;;;;;-2.22;nan;98929.38;5092733;28;20199;-69
2024/01/15 02:15:48;;;;;;;0.80;0.80;;;;;;;-2.15;nan;98940.34;5093223;28;20219;-68
2024/01/15 02:18:15;;;;;;;1.00;1.00;;;;;;;-2.15;nan;98951.22;5102198;28;20206;-68
2024/01/15 02:20:44;;;;;;;2.43;2.40;;;;;;;-2.10;nan;98963.00;5113900;27;20608;-68
2024/01/15 02:23:13;;;;;;;1.30;1.30;;;;;;;-2.14;nan;98957.94;5101431;28;20206;-69
2024/01/15 02:25:41;;;;;;;0.90;0.90;;;;;;;-2.15;nan;98966.28;5101585;28;20186;-68
2024/01/15 02:28:10;;;;;;;1.67;1.67;;;;;;;-2.19;nan;98956.16;5093577;28;20245;-68
2024/01/15 02:30:39;;;;;;;1.40;1.40;;;;;;;-2.18;nan;98958.72;5098695;28;20195;-68
2024/01/15 02:33:06;;;;;;;0.87;0.87;;;;;;;-2.17;nan;98962.94;5092640;28;20227;-68
2024/01/15 02:35:32;;;;;;;0.90;0.90;;;;;;;-2.21;nan;98961.19;5092456;28;20207;-68
2024/01/15 02:37:59;;;;;;;0.90;0.90;;;;;;;-2.19;nan;98967.06;5092889;28;20578;-68
2024/01/15 02:40:27;;;;;;;1.00;1.00;;;;;;;-2.21;nan;98966.22;5091720;28;20196;-68
2024/01/15 02:42:54;;;;;;;1.87;1.87;;;;;;;-2.19;nan;98961.19;5104811;28;20260;-68
2024/01/15 02:45:22;;;;;;;1.37;1.37;;;;;;;-2.21;nan;98957.81;5092828;28;20629;-69
2024/01/15 02:47:49;;;;;;;1.00;1.00;;;;;;;-2.21;nan;98950.31;5104378;28;20560;-68
2024/01/15 02:50:16;;;;;;;0.80;0.80;;;;;;;-2.22;nan;98959.50;5096779;28;20195;-68
2024/01/15 02:52:43;;;;;;;1.40;1.40;;;;;;;-2.30;nan;98946.00;5092356;28;20202;-68
2024/01/15 02:55:10;;;;;;;2.63;2.53;;;;;;;-2.26;nan;98957.75;5092320;28;20207;-68
2024/01/15 02:57:38;;;;;;;2.60;2.50;;;;;;;-2.27;nan;98956.09;5094043;28;20198;-68
2024/01/15 03:00:07;;;;;;;1.43;1.43;;;;;;;-2.42;nan;98934.97;5092332;28;20260;-68
2024/01/15 03:02:33;;;;;;;3.80;1.63;;;;;;;-2.32;nan;98950.16;5092143;28;20291;-68
2024/01/15 03:05:00;;;;;;;0.93;0.93;;;;;;;-2.34;nan;98944.28;5092140;28;20202;-70
2024/01/15 03:07:27;;;;;;;1.10;1.10;;;;;;;-2.34;nan;98950.97;5092000;28;20196;-68
2024/01/15 03:09:54;;;;;;;1.63;1.63;;;;;;;-2.35;nan;98950.09;5092010;28;20641;-68
2024/01/15 03:12:21;;;;;;;2.17;2.07;;;;;;;-2.36;nan;98955.94;5092198;28;20195;-68
2024/01/15 03:14:49;;;;;;;1.00;1.00;;;;;;;-2.40;nan;98958.41;5091622;28;20207;-68
2024/01/15 03:17:15;;;;;;;1.00;1.00;;;;;;;-2.44;nan;98961.69;5093746;28;20231;-68
2024/01/15 03:19:42;;;;;;;0.97;0.97;;;;;;;-2.50;nan;98947.41;5091974;28;20245;-68
2024/01/15 03:22:09;;;;;;;2.53;1.43;;;;;;;-2.64;nan;98918.75;5091953;28;20195;-67
2024/01/15 03:24:36;;;;;;;0.77;0.77;;;;;;;-2.47;nan;98941.56;5091598;28;20245;-68
2024/01/15 03:27:03;;;;;;;1.23;1.23;;;;;;;-2.49;nan;98944.06;5092060;28;20191;-68
2024/01/15 03:29:30;;;;;;;1.23;1.23;;;;;;;-2.50;nan;98939.88;5091388;28;20199;-68
2024/01/15 03:31:58;;;;;;;1.00;1.00;;;;;;;-2.51;nan;98950.72;5091683;28;20253;-68
2024/01/15 03:34:24;;;;;;;1.00;1.00;;;;;;;-2.54;nan;98940.63;5090938;28;20260;-67
2024/01/15 03:36:51;;;;;;;1.80;1.80;;;;;;;-2.59;nan;98942.25;5091517;28;20943;-67
2024/01/15 03:39:18;;;;;;;0.80;0.80;;;;;;;-2.63;nan;98943.03;5091416;28;20248;-67
2024/01/15 03:41:44;;;;;;;0.87;0.87;;;;;;;-2.66;nan;98942.97;5091718;28;20702;-68
2024/01/15 03:44:11;;;;;;;0.97;0.97;;;;;;;-2.69;nan;98945.44;5092445;28;20191;-68
2024/01/15 03:46:38;;;;;;;0.80;0.80;;;;;;;-2.86;nan;98942.66;5090509;28;20204;-68
2024/01/15 03:49:06;;;;;;;1.00;1.00;;;;;;;-2.99;nan;98944.94;5091084;28;20671;-69
2024/01/15 03:51:33;;;;;;;1.77;1.77;;;;;;;-3.13;nan;98943.91;5090733;28;20257;-68
2024/01/15 03:53:59;;;;;;;0.93;0.93;;;;;;;-3.15;nan;98948.03;5090792;28;20248;-68
2024/01/15 03:56:26;;;;;;;1.27;1.27;;;;;;;-3.10;nan;98951.47;5091374;28;20215;-68
2024/01/15 03:58:53;;;;;;;1.23;1.23;;;;;;;-3.10;nan;98951.47;5090939;28;20256;-68
2024/01/15 04:01:20;;;;;;;1.53;1.53;;;;;;;-3.07;nan;98941.50;5091250;28;20249;-68
2024/01/15 04:03:46;;;;;;;1.83;1.37;;;;;;;-3.04;nan;98947.41;5090887;28;20200;-69
2024/01/15 04:06:15;;;;;;;1.07;1.07;;;;;;;-3.00;nan;98948.28;5091043;28;20199;-69
2024/01/15 04:08:41;;;;;;;0.87;0.87;;;;;;;-2.99;nan;98940.78;5100395;28;20691;-69
2024/01/15 04:11:08;;;;;;;0.90;0.90;;;;;;;-3.01;nan;98942.44;5096004;28;20582;-69
2024/01/15 04:13:35;;;;;;;1.23;1.23;;;;;;;-2.99;nan;98940.78;5094424;28;20217;-68
2024/01/15 04:16:02;;;;;;;1.50;1.50;;;;;;;-2.98;nan;98931.59;5111045;28;20223;-69
2024/01/15 04:18:28;;;;;;;1.20;1.20;;;;;;;-2.91;nan;98928.38;5109855;28;20251;-69
2024/01/15 04:20:55;;;;;;;1.20;1.20;;;;;;;-2.95;nan;98921.63;5090825;28;20215;-69
2024/01/15 04:23:23;;;;;;;0.90;0.90;;;;;;;-2.98;nan;98924.09;5090591;28;20195;-69
2024/01/15 04:25:50;;;;;;;0.87;0.87;;;;;;;-2.97;nan;98920.78;5090521;28;20195;-69
2024/01/15 04:28:16;;;;;;;0.90;0.90;;;;;;;-2.95;nan;98922.47;5099367;28;20260;-69
2024/01/15 04:30:43;;;;;;;1.03;1.03;;;;;;;-2.97;nan;98919.06;5090543;28;20244;-67
2024/01/15 04:33:10;;;;;;;3.20;2.70;;;;;;;-2.92;nan;98919.16;5090863;28;20195;-69
2024/01/15 04:35:36;;;;;;;1.73;1.63;;;;;;;-2.94;nan;98923.31;5099538;28;20243;-69
2024/01/15 04:38:03;;;;;;;1.73;1.73;;;;;;;-2.96;nan;98904.88;5111101;28;20190;-69
2024/01/15 04:40:31;;;;;;;1.40;1.40;;;;;;;-2.98;nan;98914.91;5097164;28;20199;-69
2024/01/15 04:42:58;;;;;;;0.87;0.87;;;;;;;-3.00;nan;98908.16;5090567;28;20195;-69
2024/01/15 04:45:28;;;;;;;0.80;0.80;;;;;;;-3.00;nan;98913.16;5089913;28;20248;-69
2024/01/15 04:47:55;;;;;;;1.70;1.60;;;;;;;-2.98;nan;98911.56;5089671;28;20582;-68
2024/01/15 04:50:22;;;;;;;1.47;1.47;;;;;;;-2.97;nan;98918.25;5090414;28;20282;-69
2024/01/15 04:52:49;;;;;;;1.13;1.13;;;;;;;-2.93;nan;98915.81;5090760;28;20927;-69
2024/01/15 04:55:15;;;;;;;1.83;1.83;;;;;;;-2.91;nan;98898.28;5090589;28;20540;-69
2024/01/15 04:57:43;;;;;;;1.67;1.57;;;;;;;-2.90;nan;98900.81;5090171;28;20219;-69
2024/01/15 05:00:13;;;;;;;1.33;1.33;;;;;;;-2.89;nan;98911.69;5090261;28;20635;-69
2024/01/15 05:02:39;;;;;;;2.33;2.13;;;;;;;-2.89;nan;98911.69;5093016;28;20286;-69
2024/01/15 05:05:06;;;;;;;1.17;1.17;;;;;;;-2.89;nan;98899.16;5093122;28;20203;-68
2024/01/15 05:07:33;;;;;;;1.20;1.20;;;;;;;-2.88;nan;98894.16;5099080;28;20236;-68
2024/01/15 05:09:59;;;;;;;1.10;1.10;;;;;;;-2.95;nan;98879.84;5097268;28;20195;-68
2024/01/15 05:12:26;;;;;;;1.47;1.47;;;;;;;-2.92;nan;98892.44;5102481;28;20580;-69
2024/01/15 05:14:54;;;;;;;0.80;0.80;;;;;;;-2.92;nan;98891.59;5108756;28;20196;-69
2024/01/15 05:17:21;;;;;;;2.00;1.57;;;;;;;-2.93;nan;98879.84;5094127;28;20289;-69
2024/01/15 05:19:47;;;;;;;1.27;1.27;;;;;;;-3.01;nan;98863.88;5093179;28;20207;-68
2024/01/15 05:22:14;;;;;;;1.13;1.13;;;;;;;-2.91;nan;98885.75;5093933;28;20199;-68
2024/01/15 05:24:41;;;;;;;1.10;1.10;;;;;;;-2.93;nan;98872.34;5093800;28;20191;-69
2024/01/15 05:27:08;;;;;;;0.97;0.97;;;;;;;-2.99;nan;98865.56;5091093;28;20257;-67
2024/01/15 05:29:34;;;;;;;1.40;1.40;;;;;;;-2.96;nan;98875.66;5093452;28;20207;-69
2024/01/15 05:32:02;;;;;;;1.40;1.37;;;;;;;-2.94;nan;98873.19;5087288;28;20199;-69
2024/01/15 05:34:29;;;;;;;1.53;1.53;;;;;;;-2.98;nan;98861.41;5091944;28;20229;-68
2024/01/15 05:36:56;;;;;;;0.97;0.97;;;;;;;-3.00;nan;98855.50;5091023;28;20297;-69
2024/01/15 05:39:22;;;;;;;1.20;1.20;;;;;;;-3.04;nan;98853.81;5092923;28;20260;-69
2024/01/15 05:41:49;;;;;;;1.93;1.83;;;;;;;-2.95;nan;98866.47;5097673;28;20685;-68
2024/01/15 05:44:15;;;;;;;1.10;1.10;;;;;;;-2.96;nan;98884.81;5092013;28;20210;-69
2024/01/15 05:46:41;;;;;;;1.03;1.03;;;;;;;-2.97;nan;98886.47;5103493;28;20195;-68
2024/01/15 05:49:09;;;;;;;1.10;1.10;;;;;;;-2.96;nan;98880.66;5099719;28;20206;-68
2024/01/15 05:51:36;;;;;;;1.63;1.63;;;;;;;-2.97;nan;98880.66;5091746;28;20207;-68
2024/01/15 05:54:03;;;;;;;0.90;0.90;;;;;;;-3.00;nan;98888.09;5094916;28;20238;-69
2024/01/15 05:56:30;;;;;;;2.13;2.13;;;;;;;-3.00;nan;98893.13;5091158;28;20273;-69
2024/01/15 05:58:57;;;;;;;1.03;1.03;;;;;;;-2.99;nan;98878.09;5096404;28;20659;-68
2024/01/15 06:01:23;;;;;;;0.87;0.87;;;;;;;-3.00;nan;98883.09;5100263;28;20200;-68
2024/01/15 06:03:50;;;;;;;0.93;0.93;;;;;;;-3.03;nan;98878.03;5090636;28;20196;-69
2024/01/15 06:06:18;;;;;;;1.30;1.30;;;;;;;-3.01;nan;98882.28;5097605;28;20203;-69
2024/01/15 06:08:45;;;;;;;3.03;1.83;;;;;;;-3.01;nan;98872.25;5092687;28;20218;-69
2024/01/15 06:11:11;;;;;;;0.70;0.70;;;;;;;-2.99;nan;98867.22;5096985;28;20268;-69
2024/01/15 06:13:38;;;;;;;1.20;1.20;;;;;;;-3.07;nan;98859.63;5092229;28;20561;-69
2024/01/15 06:16:14;;;;;;;1.17;1.17;;;;;;;-3.05;nan;98864.63;5092156;28;20653;-68
2024/01/15 06:18:40;;;;;;;1.30;1.30;;;;;;;-3.04;nan;98877.22;5098980;28;20199;-67
2024/01/15 06:21:07;;;;;;;0.90;0.90;;;;;;;-3.03;nan;98895.56;5105500;28;20245;-67
2024/01/15 06:23:35;;;;;;;0.97;0.97;;;;;;;-3.03;nan;98898.09;5097743;28;20226;-67
2024/01/15 06:26:03;;;;;;;1.53;1.53;;;;;;;-3.03;nan;98903.09;5097247;28;20203;-67
2024/01/15 06:28:30;;;;;;;1.10;1.10;;;;;;;-3.05;nan;98884.69;5090558;28;20284;-68
2024/01/15 06:30:58;;;;;;;0.97;0.97;;;;;;;-2.99;nan;98902.34;5092974;28;20208;-68
2024/01/15 06:33:24;;;;;;;1.50;1.50;;;;;;;-3.05;nan;98899.72;5092059;28;20260;-68
2024/01/15 06:35:51;;;;;;;1.63;1.63;;;;;;;-3.12;nan;98900.44;5092655;28;20207;-68
2024/01/15 06:38:18;;;;;;;0.97;0.97;;;;;;;-3.10;nan;98911.38;5089836;28;20895;-68
2024/01/15 06:40:48;;;;;;;0.93;0.93;;;;;;;-3.14;nan;98899.59;5090833;28;20591;-69
2024/01/15 06:43:15;;;;;;;1.07;1.07;;;;;;;-3.27;nan;98879.34;5091880;28;20675;-68
2024/01/15 06:45:41;;;;;;;1.00;1.00;;;;;;;-3.17;nan;98891.19;5090166;28;20207;-68
2024/01/15 06:48:08;;;;;;;1.20;1.20;;;;;;;-3.13;nan;98888.75;5096198;28;20237;-68
2024/01/15 06:50:35;;;;;;;1.67;1.67;;;;;;;-3.15;nan;98895.38;5089042;28;20199;-68
2024/01/15 06:53:01;;;;;;;1.70;1.70;;;;;;;-3.08;nan;98887.16;5102399;28;20204;-69
2024/01/15 06:55:28;;;;;;;3.70;1.63;;;;;;;-3.04;nan;98887.25;5095031;28;20629;-69
2024/01/15 06:58:00;;;;;;;1.53;1.53;;;;;;;-3.03;nan;98883.88;5089292;28;20670;-69
2024/01/15 07:00:27;;;;;;;1.83;1.83;;;;;;;-3.03;nan;98868.00;5092664;28;20220;-69
2024/01/15 07:02:54;;;;;;;2.60;2.50;;;;;;;-2.95;nan;98874.00;5091230;28;20203;-69
2024/01/15 07:05:21;;;;;;;1.73;1.67;;;;;;;-2.93;nan;98870.66;5099921;28;20203;-68
2024/01/15 07:07:48;;;;;;;1.73;1.73;;;;;;;-3.03;nan;98850.44;5091024;28;20269;-69
2024/01/15 07:10:15;;;;;;;1.07;1.07;;;;;;;-2.85;nan;98860.75;5096144;28;20199;-69
2024/01/15 07:12:43;;;;;;;0.87;0.87;;;;;;;-2.81;nan;98860.81;5092157;28;20660;-68
2024/01/15 07:15:11;;;;;;;1.27;1.27;;;;;;;-2.77;nan;98861.69;5096160;28;20199;-68
2024/01/15 07:17:39;;;;;;;0.93;0.93;;;;;;;-2.78;nan;98855.03;5094036;28;20654;-68
2024/01/15 07:20:07;;;;;;;2.77;2.67;;;;;;;-2.67;nan;98871.03;5089611;28;20199;-69
2024/01/15 07:22:34;;;;;;;1.37;1.37;;;;;;;-2.69;nan;98875.19;5092361;28;20294;-68
2024/01/15 07:25:01;;;;;;;1.03;1.03;;;;;;;-2.68;nan;98879.38;5099028;28;20199;-68
2024/01/15 07:27:28;;;;;;;1.07;1.07;;;;;;;-2.67;nan;98893.63;5097588;28;20282;-69
2024/01/15 07:29:55;;;;;;;1.20;1.20;;;;;;;-2.82;nan;98875.84;5093229;28;20280;-69
2024/01/15 07:32:23;;;;;;;1.27;1.27;;;;;;;-2.72;nan;98885.19;5091206;28;20290;-69
2024/01/15 07:34:49;;;;;;;1.47;1.37;;;;;;;-2.68;nan;98876.88;5091523;28;20261;-68
2024/01/15 07:37:16;;;;;;;1.00;1.00;;;;;;;-2.59;nan;98887.06;5099819;28;20219;-69
2024/01/15 07:39:43;;;;;;;2.70;2.60;;;;;;;-2.50;nan;98879.66;5096585;28;20248;-69
2024/01/15 07:42:09;;;;;;;1.67;1.57;;;;;;;-2.46;nan;98888.91;5094074;28;20199;-69
2024/01/15 07:44:36;;;;;;;1.93;1.93;;;;;;;-2.39;nan;98888.13;5094422;28;20489;-69
2024/01/15 07:47:03;;;;;;;2.10;1.37;;;;;;;-2.37;nan;98878.13;5096301;28;20195;-69
2024/01/15 07:49:31;;;;;;;0.93;0.93;;;;;;;-2.33;nan;98889.91;5092007;28;20620;-69
2024/01/15 07:51:58;;;;;;;0.80;0.80;;;;;;;-2.37;nan;98884.00;5102772;28;20206;-69
2024/01/15 07:54:25;;;;;;;1.40;1.40;;;;;;;-2.25;nan;98890.81;5096630;28;20290;-69
2024/01/15 07:56:55;;;;;;;1.20;1.20;;;;;;;-2.15;nan;98890.97;5095653;28;20560;-67
2024/01/15 07:59:23;;;;;;;0.90;0.90;;;;;;;-2.07;nan;98905.28;5092498;28;20208;-66
2024/01/15 08:01:49;;;;;;;1.57;1.57;;;;;;;-1.98;nan;98923.81;5091145;28;20294;-66
2024/01/15 08:04:16;;;;;;;0.90;0.90;;;;;;;-1.85;nan;98924.78;5096900;28;20198;-68
2024/01/15 08:06:44;;;;;;;2.60;2.50;;;;;;;-1.70;nan;98929.97;5098830;28;20207;-66
2024/01/15 08:09:12;;;;;;;1.53;1.53;;;;;;;-1.64;nan;98925.03;5098878;28;20621;-67
2024/01/15 08:11:40;;;;;;;2.73;2.53;;;;;;;-1.52;nan;98930.19;5104370;28;20207;-67
2024/01/15 08:14:07;;;;;;;1.17;1.17;;;;;;;-1.41;nan;98922.72;5091352;28;20747;-69
2024/01/15 08:16:34;;;;;;;1.10;1.10;;;;;;;-1.35;nan;98922.78;5088636;28;20234;-68
2024/01/15 08:19:00;;;;;;;1.77;1.77;;;;;;;-1.33;nan;98911.94;5090523;28;20854;-66
2024/01/15 08:21:29;;;;;;;2.30;2.30;;;;;;;-1.16;nan;98919.63;5085599;28;20207;-65
2024/01/15 08:23:57;;;;;;;1.13;1.13;;;;;;;-1.06;nan;98922.22;5089728;28;20230;-66
2024/01/15 08:26:24;;;;;;;1.17;1.17;;;;;;;-0.99;nan;98918.09;5090877;28;20257;-66
2024/01/15 08:28:52;;;;;;;1.27;1.27;;;;;;;-0.87;nan;98919.88;5087973;28;20203;-68
2024/01/15 08:31:19;;;;;;;2.30;2.20;;;;;;;-0.76;nan;98915.75;5087729;28;20227;-68
2024/01/15 08:33:46;;;;;;;0.93;0.93;;;;;;;-0.59;nan;98919.22;5082853;28;20256;-67
2024/01/15 08:36:13;;;;;;;1.47;1.47;;;;;;;-0.51;nan;98917.59;5088192;28;20253;-68
2024/01/15 08:38:40;;;;;;;2.20;1.90;;;;;;;-0.42;nan;98910.06;5088805;28;20674;-67
2024/01/15 08:41:08;;;;;;;0.90;0.90;;;;;;;-0.33;nan;98907.63;5094120;28;21254;-68
2024/01/15 08:43:35;;;;;;;0.90;0.90;;;;;;;-0.30;nan;98894.22;5086757;28;20261;-69
2024/01/15 08:46:02;;;;;;;1.10;1.10;;;;;;;-0.17;nan;98895.94;5087391;28;20203;-69
2024/01/15 08:48:29;;;;;;;0.73;0.73;;;;;;;-0.06;nan;98890.09;5088486;28;20252;-69
2024/01/15 08:50:56;;;;;;;1.07;1.07;;;;;;;0.03;nan;98876.72;5090066;28;20248;-70
2024/01/15 08:53:23;;;;;;;1.00;1.00;;;;;;;0.15;nan;98868.34;5090084;28;20587;-70
2024/01/15 08:55:50;;;;;;;1.47;1.47;;;;;;;0.20;nan;98865.00;5092116;28;20638;-71
2024/01/15 08:58:18;;;;;;;1.20;1.20;;;;;;;0.13;nan;98853.22;5092217;28;20215;-71
2024/01/15 09:00:45;;;;;;;2.13;2.10;;;;;;;0.08;nan;98823.81;5089941;28;20290;-71
2024/01/15 09:03:12;;;;;;;1.00;1.00;;;;;;;0.18;nan;98850.72;5095368;28;20196;-71
2024/01/15 09:05:40;;;;;;;2.30;1.10;;;;;;;0.24;nan;98855.75;5096636;28;20207;-71
2024/01/15 09:08:07;;;;;;;1.43;1.43;;;;;;;0.24;nan;98851.56;5086606;28;20199;-71
2024/01/15 09:10:34;;;;;;;0.90;0.90;;;;;;;0.37;nan;98857.47;5090998;28;20268;-70
2024/01/15 09:13:01;;;;;;;0.90;0.90;;;;;;;0.46;nan;98858.31;5088951;28;20633;-69
2024/01/15 09:15:29;;;;;;;1.00;1.00;;;;;;;0.48;nan;98849.09;5088043;28;20259;-68
2024/01/15 09:17:57;;;;;;;1.43;1.43;;;;;;;0.62;nan;98853.28;5089195;28;20277;-71
2024/01/15 09:20:24;;;;;;;0.70;0.70;;;;;;;0.66;nan;98860.03;5089968;28;20199;-71
2024/01/15 09:22:50;;;;;;;1.20;1.20;;;;;;;0.69;nan;98860.88;5089483;28;20586;-71
2024/01/15 09:25:17;;;;;;;1.10;1.10;;;;;;;0.77;nan;98859.19;5092096;28;20245;-71
2024/01/15 09:27:44;;;;;;;1.57;1.57;;;;;;;0.88;nan;98851.59;5090180;28;20187;-69
2024/01/15 09:30:11;;;;;;;4.33;1.83;;;;;;;0.92;nan;98844.06;5090258;28;20196;-68
2024/01/15 09:32:39;;;;;;;2.60;1.33;;;;;;;0.91;nan;98831.41;5090787;28;20286;-67
2024/01/15 09:35:07;;;;;;;1.43;1.43;;;;;;;0.93;nan;98817.97;5091217;28;20207;-68
2024/01/15 09:37:34;;;;;;;1.10;1.10;;;;;;;1.00;nan;98819.63;5090005;28;20215;-70
2024/01/15 09:40:01;;;;;;;1.07;1.07;;;;;;;1.15;nan;98830.56;5096847;28;20256;-69
2024/01/15 09:42:29;;;;;;;0.80;0.80;;;;;;;1.27;nan;98833.06;5090323;28;20250;-67
2024/01/15 09:44:56;;;;;;;1.10;1.10;;;;;;;1.35;nan;98823.78;5090041;28;20204;-68
2024/01/15 09:47:24;;;;;;;3.20;1.93;;;;;;;1.39;nan;98810.31;5090976;28;20667;-68
2024/01/15 09:49:52;;;;;;;1.27;1.27;;;;;;;1.44;nan;98813.66;5094549;28;20241;-69
2024/01/15 09:52:20;;;;;;;3.07;1.77;;;;;;;1.38;nan;98793.47;5107069;28;20200;-69
2024/01/15 09:54:47;;;;;;;1.67;1.50;;;;;;;1.53;nan;98808.56;5093814;28;20199;-70
2024/01/15 09:57:14;;;;;;;0.53;0.53;;;;;;;1.59;nan;98798.44;5093178;28;20191;-71
2024/01/15 09:59:43;;;;;;;1.00;1.00;;;;;;;1.63;nan;98790.00;5095267;28;20196;-71
2024/01/15 10:02:15;;;;;;;0.90;0.90;;;;;;;1.70;nan;98781.56;5093668;28;20257;-71
2024/01/15 10:04:43;;;;;;;0.90;0.90;;;;;;;1.73;nan;98779.00;5094910;28;20192;-72
2024/01/15 10:07:16;;;;;;;1.43;1.43;;;;;;;1.81;nan;98779.81;5094611;28;20196;-72
2024/01/15 10:09:43;;;;;;;0.93;0.93;;;;;;;1.92;nan;98783.13;5098424;28;20234;-71
2024/01/15 10:12:11;;;;;;;3.03;1.17;;;;;;;1.97;nan;98771.28;5100400;28;20199;-71
2024/01/15 10:14:37;;;;;;;1.30;1.20;;;;;;;2.05;nan;98763.66;5093357;28;20208;-71
2024/01/15 10:17:13;;;;;;;1.20;1.20;;;;;;;2.15;nan;98757.69;5093020;28;20288;-71
2024/01/15 10:19:41;;;;;;;1.40;1.40;;;;;;;2.11;nan;98728.22;5092628;28;20231;-67
2024/01/15 10:22:08;;;;;;;2.53;1.13;;;;;;;2.28;nan;98731.47;5096332;28;20196;-68
2024/01/15 10:24:37;;;;;;;2.27;2.17;;;;;;;2.37;nan;98715.38;5094380;28;20203;-72
2024/01/15 10:27:07;;;;;;;1.70;1.70;;;;;;;2.33;nan;98713.72;5107165;28;20206;-68
2024/01/15 10:29:34;;;;;;;1.53;1.53;;;;;;;2.34;nan;98702.75;5098298;28;20618;-73
2024/01/15 10:32:02;;;;;;;1.73;1.73;;;;;;;2.45;nan;98696.78;5112999;28;20558;-71
2024/01/15 10:34:29;;;;;;;2.63;2.63;;;;;;;2.54;nan;98688.25;5097668;28;20718;-72
2024/01/15 10:36:56;;;;;;;1.27;1.27;;;;;;;2.63;nan;98670.44;5092645;28;20191;-71
2024/01/15 10:39:23;;;;;;;1.50;1.50;;;;;;;2.68;nan;98662.81;5090111;28;20715;-72
2024/01/15 10:41:51;;;;;;;1.57;1.47;;;;;;;2.75;nan;98675.38;5089420;28;20243;-71
2024/01/15 10:44:18;;;;;;;0.90;0.90;;;;;;;2.89;nan;98685.34;5088093;28;20231;-72
2024/01/15 10:46:46;;;;;;;0.93;0.93;;;;;;;2.92;nan;98686.16;5090744;28;20594;-71
2024/01/15 10:49:12;;;;;;;1.73;1.73;;;;;;;2.93;nan;98677.72;5088463;28;20204;-71
2024/01/15 10:51:39;;;;;;;0.77;0.77;;;;;;;2.95;nan;98687.81;5087877;28;20890;-71
2024/01/15 10:54:06;;;;;;;3.40;1.60;;;;;;;3.02;nan;98692.81;5087114;28;20675;-71
2024/01/15 10:56:34;;;;;;;1.27;1.27;;;;;;;3.06;nan;98686.84;5089129;28;20249;-72
2024/01/15 10:59:04;;;;;;;0.93;0.93;;;;;;;3.11;nan;98680.03;5087838;28;20227;-71
2024/01/15 11:01:31;;;;;;;1.30;1.30;;;;;;;3.22;nan;98674.84;5088736;28;20257;-72
2024/01/15 11:03:58;;;;;;;1.27;1.27;;;;;;;3.34;nan;98666.25;5088334;28;20199;-72
2024/01/15 11:06:25;;;;;;;1.57;1.57;;;;;;;3.48;nan;98656.78;5085902;28;20285;-72
2024/01/15 11:08:54;;;;;;;1.10;1.10;;;;;;;3.55;nan;98646.53;5096111;28;20207;-71
2024/01/15 11:11:23;;;;;;;2.47;2.47;;;;;;;3.67;nan;98640.44;5093172;28;20199;-71
2024/01/15 11:13:51;;;;;;;2.10;1.47;;;;;;;3.82;nan;98635.13;5097808;28;20726;-71
2024/01/15 11:16:19;;;;;;;1.40;1.40;;;;;;;3.90;nan;98629.97;5090119;28;20234;-72
2024/01/15 11:19:06;;;;;;;1.43;1.33;;;;;;;3.98;nan;98628.97;5088753;28;20216;-72
2024/01/15 11:21:32;;;;;;;1.90;1.90;;;;;;;4.00;nan;98617.13;5087560;28;20260;-71
2024/01/15 11:24:01;;;;;;;1.17;1.17;;;;;;;4.15;nan;98621.94;5090293;28;20199;-71
2024/01/15 11:26:32;;;;;;;1.40;1.40;;;;;;;4.17;nan;98617.66;5088294;28;20214;-72
2024/01/15 11:29:01;;;;;;;1.50;1.50;;;;;;;4.23;nan;98627.69;5090452;28;20583;-70
2024/01/15 11:31:30;;;;;;;1.10;1.10;;;;;;;4.29;nan;98613.25;5088801;28;20211;-71
2024/01/15 11:33:57;;;;;;;1.23;1.23;;;;;;;4.36;nan;98614.81;5087353;28;20211;-71
2024/01/15 11:36:57;;;;;;;1.90;1.80;;;;;;;4.41;nan;98618.09;5089420;28;20200;-71
2024/01/15 11:39:46;;;;;;;1.57;1.57;;;;;;;4.54;nan;98624.63;5089521;28;20227;-71
2024/01/15 11:42:13;;;;;;;1.53;1.43;;;;;;;4.58;nan;98627.09;5085006;28;20731;-70
2024/01/15 11:44:41;;;;;;;1.50;1.50;;;;;;;4.58;nan;98622.00;5088945;28;20206;-71
2024/01/15 11:47:12;;;;;;;2.50;1.33;;;;;;;4.62;nan;98612.63;5090818;28;20258;-71
2024/01/15 11:50:00;;;;;;;4.67;1.67;;;;;;;4.63;nan;98610.06;5087756;28;20256;-71
2024/01/15 11:52:29;;;;;;;0.90;0.90;;;;;;;4.65;nan;98607.50;5091388;28;20200;-70
2024/01/15 11:55:03;;;;;;;0.73;0.73;;;;;;;4.65;nan;98615.13;5089633;28;20268;-69